EGTC

Cranfield Airport

Cranfield, United Kingdom
METAR EGTC 151620Z 25006KT 190V280 CAVOK 28/08 Q1014
Observed Flight Rules
Jul-15 @ 16:20 UTC (5 hours ago) Visual Flight Rules
Wind Visibility Clouds
250° at 6 knots 10,000+ meters
  • Clear skies
Temperatures Readings
Current 28°C / 82°F
Dewpoint 8°C / 46°F
Humidity 28%
Altimeter 29.94" Hg
Pressure 1014 hPa
Elevation 111
METAR EGTC 151620Z 25006KT 190V280 CAVOK 28/08 Q1014
Observed Flight Rules
Jul-15 @ 16:20 UTC
(5 hours ago)
VFR
Wind Visibility
250° at 6 knots 10,000+ meters
Clouds
  • Clear skies
Temperature Dewpoint
28°C / 82°F 8°C / 46°F
Humidity Altimeter Pressure
28% 29.94" Hg 1014 hPa